MA91 weather

Compaq Parker Street Heliport
Maynard, Massachusetts, United States

Public forecast

Using degrees Fahrenheit for public forecast. Weather courtesy of forecast.io.

METAR (pilot weather report)

Closest report is Laurence G Hanscom Field, 7.7 nm (14.2 km) ENE. Retrieved 2019/07/18 13:56 UTC (29 minutes ago):

KBED 181356Z 05013KT 10SM OVC024 21/14 A3000 RMK AO2 SLP170 T02110144

TAF (pilot weather forecast)

Closest forecast is Laurence G Hanscom Field, 7.7 nm (14.2 km) ENE. Retrieved 2019/07/18 12:24 UTC (2 hours ago):

TAF KBED 181123Z 1812/1912 05010KT P6SM OVC015 FM182000 06010KT P6SM BKN015 FM190100 04004KT P6SM BKN010 FM190500 00000KT P6SM BKN008